Alba Iulia, Romania

11:39 PM EEST on May 22, 2015 (GMT +0300)
Someseni | | Change Station
CLOSE
Current Station
Airport
Location: Cluj,
Elevation: 1033 ft
Nearby Weather Stations

Elev 1033 ft 46.78 °N, 23.68 °E | Updated 9 minutes ago

Light Thunderstorms and Rain
Light Thunderstorm Rain
64 °F
Feels Like 64 °F
N
2
Wind Variable Wind from West

Today
High -- | Low -- °F
--% Chance of Precip.
Yesterday
High -- | Low -- °F
Precip. -- in
5:46 AM 8:58 PM
Waxing Crescent, 24% visible
Pressure 29.98 in
Visibility 6.2 miles
Clouds Few 6300 ft
Dew Point 63 °F
Humidity 94%
Rainfall 0.00 in
Snow Depth Not available.
UV 0 out of 12
Pollen Not available.
Air Quality Not available.
Flu Activity Not available.
METAR LRCL 222030Z 27002KT 9999 -TSRA FEW063CB 18/17 Q1015

More Conditions Fewer Conditions

Pressure 29.98 in
Visibility 6.2 miles
Clouds Few 6300 ft
Dew Point 63 °F
Humidity 94%
Rainfall 0.00 in
Snow Depth Not available.
UV 0 out of 12
Pollen Not available.
Air Quality Not available.
Flu Activity Not available.
METAR LRCL 222030Z 27002KT 9999 -TSRA FEW063CB 18/17 Q1015

More Conditions Fewer Conditions

10-Day Weather Forecast

Almanac

Astronomy

May. 22, 2015 Rise Set
Actual Time
Civil Twilight
Nautical Twilight
Astronomical Twilight
Moon
Length of Visible Light
Length of Day
Tomorrow will be .
, % of the Moon is Illuminated

Today's Extremes

Country Highs Country Lows

Community

WunderPhotos

Upload Photos

1,823,288 photos uploaded!

WunderBlogs® & News

Nearby

Air Quality

  Air Quality AQ Index Pollutant
Not available.

Snow Depth

Station Depth Elevation

Earthquake Activity

City Distance Mag. Time & Date
Minimum magnitude displayed is 2.5.

Coastal Water Temperatures

Place Temperature

Stations

Nearby Weather Stations

Station Location Temp. Windchill Dew Point Humidity Wind Precip. Elev Updated Type